Clinton, Massachusetts
Current Conditions -  °F | °C
As of 1:52 AM on Thursday 27 Nov 2014 (Local Time) from KFIT Reporting Station
Light Snow Light Snow  
Wind Chill: 28°   Ceiling: 2300
Heat Index: 34°   Visibility: 2.5mi
Dew Point: 31°   Wind: 7mph
Humidity: 89%   Direction: 330°NNW
Pressure: 29.77"   Gusts: NA
Location:  42.42°N, 71.68°W
Report Text: KFIT 270652Z AUTO 33006KT 2 1/2SM -SN BR FEW013 OVC023 01/M01 A2977 RMK AO2 SLP083 P0003 T00111006
Loading
Personal Weather Stations






























Interactive Weather Map New forecast layout! Learn more

10-Day Weather Forecast

Advertisements
Track Severe Weather on mobile